UKBBLGRP

Guest
Details From UKBB - Boryspil
To LGRP - Diagoras
Flight Number -
Tags Generated
Created
Modified
Stats Distance 848 nm / 1,570 km
Max Altitude 0 ft / 0 m
Waypoints 4
Social Downloads 0
Likes 0
Share VATSIM

Download

Looking for another format? Having issues loading an existing format? Contact us
Advertisement - Login to hide

Notes

Generated

Route

UKBB ERMAN PAR LGRP

ID Type Via Altitude Latitude Longitude Leg Dist Tot Dist Heading (true) Name
O UKBB APT - 0 ft / 0 m 50.36056˚ 30.90660˚ - 0 nm - -
ERMAN FIX - 0 ft / 0 m 40.79472˚ 28.80917˚ 581 nm 581 nm 189° / 188° -
PAR VOR - 0 ft / 0 m 36.40011˚ 28.06533˚ 266 nm 847 nm 188° / 187° PARADISI VOR-DME
O LGRP APT - 0 ft / 0 m 36.40034˚ 28.06887˚ 0 nm 847 nm 85° / 85° -

Altitude Profile

Advertisement - Login to hide

Weather


0- 5 10 15 20 25 30 35+ Temperature / ° C

Clouds and Precipitation
Forecast for 2018-05-22 00:00 UTC. Updated 2 hours ago

Ground ~20,000 ft ~40,000 ft Winds

UKBB

Details ICAO UKBB (KBP)
Name Boryspil
Region Ukraine
Timezone Europe/Kiev (UTC+3.0)
Stats Elevation 421 ft / 128 m (AMSL)
Location 50.339472° 30.892903°
Runways 2
Magnetic Variation 7.720° E

METAR

UKBB 220100Z VRB01MPS 9999 OVC022 12/11 Q1021 R88/D NOSIG

Decode

TAF

TAF TAF UKBB 212305Z 2200/2224 36003MPS 9999 SCT007 BKN015 TEMPO 2200/2205 2000 BR BKN005 PROB40 TEMPO 2122/2204 0400 FG VV002 BECMG 2207/2209 22003MPS

Decode

Departure Runways

ID Width Length Bearing (true) Bearing (mag) Surface Threshold Offset Overrun Length
18L 197 ft / 60 m 13,152 ft / 4,009 m 182.72° 175.00° Concrete 0 ft / 0 m 295 ft / 90 m
18R 207 ft / 63 m 11,470 ft / 3,496 m 182.62° 174.90° Concrete 0 ft / 0 m 164 ft / 50 m
36L 207 ft / 63 m 11,470 ft / 3,496 m 2.62° 354.90° Concrete 0 ft / 0 m 164 ft / 50 m
36R 197 ft / 60 m 13,152 ft / 4,009 m 2.72° 355.00° Concrete 0 ft / 0 m 295 ft / 90 m

LGRP

Details ICAO LGRP (RHO)
Name DIAGORAS
Region Greece
Timezone Europe/Athens (UTC+3.0)
Stats Elevation 17 ft / 5 m (AMSL)
Location 36.405420° 28.086193°
Runways 1
Magnetic Variation 4.821° E

METAR

LGRP 220050Z VRB01KT 9000 FEW010 SCT020 25/19 Q1009 NOSIG

Decode

TAF

TAF LGRP 212300Z 2200/2224 16007KT 9999 FEW010 PROB30 2200/2205 5000 BR FEW006 BECMG 2208/2210 26010KT FEW018

Decode

Destination Runways

ID Width Length Bearing (true) Bearing (mag) Surface Threshold Offset Overrun Length
07 148 ft / 45 m 10,830 ft / 3,301 m 69.97° 65.15° Asphalt 0 ft / 0 m 0 ft / 0 m
25 148 ft / 45 m 10,830 ft / 3,301 m 249.99° 245.17° Asphalt 0 ft / 0 m 0 ft / 0 m

Approach Navaids

Runway Type Ident Frequency Range Bearing (true) Bearing (mag) Slope Elevation
25 Localiser IRDS 110.30 MHz 18 nm / 33 km 250.45° 245.62° - 17 ft / 5 m (AMSL)
25 Glidescope IRDS 110.30 MHz 10 nm / 19 km 249.98° 245.16° 3.00° 17 ft / 5 m (AMSL)